createdAt,value
2018-04-25T00:01:39.040Z,84.30
2018-04-25T00:04:07.618Z,83.80
2018-04-25T00:06:34.635Z,83.80
2018-04-25T00:09:02.021Z,83.50
2018-04-25T00:11:29.249Z,83.90
2018-04-25T00:13:55.835Z,83.90
2018-04-25T00:16:22.404Z,83.40
2018-04-25T00:18:49.752Z,83.40
2018-04-25T00:21:16.271Z,83.80
2018-04-25T00:23:44.342Z,84.40
2018-04-25T00:26:10.836Z,84.40
2018-04-25T00:28:37.847Z,84.90
2018-04-25T00:31:04.289Z,84.90
2018-04-25T00:33:30.762Z,85.10
2018-04-25T00:35:57.918Z,84.70
2018-04-25T00:38:25.199Z,84.60
2018-04-25T00:40:53.103Z,84.50
2018-04-25T00:43:19.671Z,84.70
2018-04-25T00:45:46.938Z,84.70
2018-04-25T00:48:13.454Z,84.50
2018-04-25T00:50:40.781Z,85.00
2018-04-25T00:53:07.240Z,85.00
2018-04-25T00:55:33.764Z,85.30
2018-04-25T00:58:00.582Z,85.80
2018-04-25T01:00:27.078Z,86.10
2018-04-25T01:02:54.401Z,86.60
2018-04-25T01:05:20.822Z,86.50
2018-04-25T01:07:48.199Z,87.30
2018-04-25T01:10:15.474Z,87.70
2018-04-25T01:12:41.918Z,87.60
2018-04-25T01:15:08.447Z,87.80
2018-04-25T01:17:34.947Z,87.20
2018-04-25T01:20:02.340Z,87.50
2018-04-25T01:22:28.849Z,87.00
2018-04-25T01:25:09.293Z,87.10
2018-04-25T01:27:37.463Z,87.40
2018-04-25T01:30:03.907Z,87.40
2018-04-25T01:32:30.394Z,86.90
2018-04-25T01:34:56.896Z,86.80
2018-04-25T01:37:34.161Z,86.70
2018-04-25T01:40:04.108Z,86.90
2018-04-25T01:42:37.500Z,87.20
2018-04-25T01:45:10.924Z,87.70
2018-04-25T01:47:37.437Z,87.70
2018-04-25T01:50:18.073Z,88.00
2018-04-25T01:52:56.813Z,88.10
2018-04-25T01:55:35.460Z,88.10
2018-04-25T01:58:14.266Z,88.10
2018-04-25T02:00:52.921Z,88.10
2018-04-25T02:03:28.314Z,88.60
2018-04-25T02:05:55.440Z,89.10
2018-04-25T02:08:21.822Z,89.00
2018-04-25T02:10:48.960Z,88.30
2018-04-25T02:13:15.347Z,88.20
2018-04-25T02:15:41.725Z,88.40
2018-04-25T02:18:08.880Z,88.20
2018-04-25T02:20:35.259Z,88.20
2018-04-25T02:23:01.646Z,88.00
2018-04-25T02:25:28.017Z,87.70
2018-04-25T02:27:54.403Z,87.50
2018-04-25T02:30:20.793Z,87.90
2018-04-25T02:32:47.170Z,87.80
2018-04-25T02:35:13.548Z,87.60
2018-04-25T02:37:39.964Z,87.40
2018-04-25T02:40:06.343Z,87.50
2018-04-25T02:42:33.552Z,87.70
2018-04-25T02:45:00.643Z,87.50
2018-04-25T02:47:27.082Z,87.40
2018-04-25T02:49:54.215Z,87.60
2018-04-25T02:52:20.630Z,87.60
2018-04-25T02:54:47.021Z,88.00
2018-04-25T02:57:13.400Z,87.90
2018-04-25T02:59:39.775Z,88.40
2018-04-25T03:02:06.204Z,88.20
2018-04-25T03:04:32.609Z,87.80
2018-04-25T03:06:58.997Z,88.20
2018-04-25T03:09:25.390Z,88.50
2018-04-25T03:11:51.787Z,87.90
2018-04-25T03:14:18.168Z,88.00
2018-04-25T03:16:44.627Z,88.20
2018-04-25T03:19:11.710Z,89.50
2018-04-25T03:21:38.070Z,89.50
2018-04-25T03:24:05.211Z,88.20
2018-04-25T03:26:32.332Z,89.10
2018-04-25T03:28:58.710Z,89.10
2018-04-25T03:31:25.090Z,88.40
2018-04-25T03:33:51.488Z,88.50
2018-04-25T03:36:17.887Z,88.30
2018-04-25T03:38:45.048Z,89.10
2018-04-25T03:41:12.204Z,88.90
2018-04-25T03:43:39.307Z,88.90
2018-04-25T03:46:05.686Z,88.80
2018-04-25T03:48:32.078Z,89.10
2018-04-25T03:50:58.480Z,89.20
2018-04-25T03:53:24.888Z,89.00
2018-04-25T03:55:52.021Z,89.70
2018-04-25T03:58:19.359Z,89.80
2018-04-25T04:00:46.500Z,89.50
2018-04-25T04:03:12.879Z,89.50
2018-04-25T04:05:39.279Z,89.90
2018-04-25T04:08:06.468Z,89.50
2018-04-25T04:10:32.921Z,89.50
2018-04-25T04:13:00.070Z,88.80
2018-04-25T04:15:27.145Z,89.10
2018-04-25T04:17:55.010Z,89.60
2018-04-25T04:20:22.857Z,89.50
2018-04-25T04:22:49.245Z,89.50
2018-04-25T04:25:15.611Z,89.50
2018-04-25T04:27:41.986Z,89.70
2018-04-25T04:30:09.095Z,89.40
2018-04-25T04:32:35.466Z,89.40
2018-04-25T04:35:01.890Z,89.50
2018-04-25T04:37:29.029Z,89.30
2018-04-25T04:39:56.911Z,89.10
2018-04-25T04:42:23.275Z,89.00
2018-04-25T04:44:50.392Z,89.50
2018-04-25T04:47:17.499Z,89.80
2018-04-25T04:49:43.874Z,89.70
2018-04-25T04:52:10.264Z,90.00
2018-04-25T04:54:36.678Z,90.10
2018-04-25T04:57:03.136Z,88.80
2018-04-25T04:59:29.535Z,88.40
2018-04-25T05:01:55.947Z,89.10
2018-04-25T05:04:23.204Z,88.70
2018-04-25T05:06:49.613Z,88.70
2018-04-25T05:09:16.043Z,88.60
2018-04-25T05:11:43.180Z,89.30
2018-04-25T05:14:09.588Z,89.00
2018-04-25T05:16:36.160Z,89.70
2018-04-25T05:19:02.576Z,89.30
2018-04-25T05:21:28.969Z,89.70
2018-04-25T05:23:55.451Z,90.10
2018-04-25T05:26:22.675Z,89.60
2018-04-25T05:28:49.312Z,89.20
2018-04-25T05:31:15.828Z,89.40
2018-04-25T05:33:42.306Z,89.90
2018-04-25T05:36:09.566Z,88.30
2018-04-25T05:38:36.760Z,87.60
2018-04-25T05:41:03.121Z,87.60
2018-04-25T05:43:29.520Z,88.80
2018-04-25T05:45:56.742Z,86.70
2018-04-25T05:48:23.150Z,86.60
2018-04-25T05:50:49.549Z,84.60
2018-04-25T05:53:15.954Z,85.00
2018-04-25T05:55:43.086Z,82.40
2018-04-25T05:58:09.465Z,82.40
2018-04-25T06:00:35.855Z,82.00
2018-04-25T06:03:02.252Z,80.20
2018-04-25T06:05:28.715Z,77.70
2018-04-25T06:07:55.115Z,75.90
2018-04-25T06:10:21.499Z,75.40
2018-04-25T06:12:48.646Z,74.60
2018-04-25T06:15:15.784Z,73.40
2018-04-25T06:17:42.178Z,73.30
2018-04-25T06:20:08.633Z,73.40
2018-04-25T06:22:35.035Z,72.40
2018-04-25T06:25:01.437Z,73.60
2018-04-25T06:27:28.551Z,73.40
2018-04-25T06:29:54.962Z,73.40
2018-04-25T06:32:21.360Z,73.20
2018-04-25T06:34:47.760Z,73.20
2018-04-25T06:37:14.938Z,73.90
2018-04-25T06:39:42.091Z,73.40
2018-04-25T06:42:08.489Z,73.40
2018-04-25T06:44:34.868Z,73.70
2018-04-25T06:47:01.240Z,74.60
2018-04-25T06:49:27.655Z,73.70
2018-04-25T06:51:54.809Z,73.10
2018-04-25T06:54:21.214Z,73.10
2018-04-25T06:56:47.675Z,72.10
2018-04-25T06:59:14.045Z,72.30
2018-04-25T07:01:40.417Z,70.80
2018-04-25T07:04:06.841Z,70.50
2018-04-25T07:06:33.271Z,71.40
2018-04-25T07:08:59.658Z,71.00
2018-04-25T07:11:26.052Z,69.40
2018-04-25T07:13:52.435Z,69.80
2018-04-25T07:16:18.826Z,67.80
2018-04-25T07:18:45.216Z,66.80
2018-04-25T07:21:12.360Z,66.90
2018-04-25T07:23:39.513Z,68.50
2018-04-25T07:26:06.647Z,66.30
2018-04-25T07:28:33.762Z,62.40
2018-04-25T07:31:00.141Z,62.30
2018-04-25T07:33:27.282Z,63.00
2018-04-25T07:35:53.675Z,63.00
2018-04-25T07:38:20.091Z,60.80
2018-04-25T07:40:46.471Z,58.60
2018-04-25T07:43:12.863Z,58.20
2018-04-25T07:45:39.274Z,58.20
2018-04-25T07:48:05.687Z,58.50
2018-04-25T07:50:32.815Z,57.80
2018-04-25T07:52:59.224Z,57.80
2018-04-25T07:55:25.622Z,58.60
2018-04-25T07:57:52.015Z,58.80
2018-04-25T08:00:19.150Z,57.70
2018-04-25T08:03:00.458Z,57.70
2018-04-25T08:05:26.882Z,58.80
2018-04-25T08:07:53.459Z,58.20
2018-04-25T08:10:19.876Z,58.50
2018-04-25T08:16:01.397Z,56.10
2018-04-25T08:18:40.174Z,56.70
2018-04-25T08:21:27.680Z,54.90
2018-04-25T08:23:54.116Z,54.20
2018-04-25T08:26:20.510Z,55.30
2018-04-25T08:28:46.902Z,55.60
2018-04-25T08:31:13.276Z,55.40
2018-04-25T08:33:39.681Z,55.90
2018-04-25T08:36:06.816Z,57.10
2018-04-25T08:38:33.217Z,56.60
2018-04-25T08:40:59.599Z,54.30
2018-04-25T08:43:25.990Z,55.10
2018-04-25T08:45:52.382Z,56.30
2018-04-25T08:48:19.518Z,56.40
2018-04-25T08:50:46.690Z,55.00
2018-04-25T08:53:13.074Z,55.00
2018-04-25T08:55:39.490Z,54.80
2018-04-25T08:58:05.902Z,55.20
2018-04-25T09:00:32.307Z,54.80
2018-04-25T09:02:59.423Z,55.80
2018-04-25T09:05:26.069Z,55.80
2018-04-25T09:07:52.442Z,56.80
2018-04-25T09:10:18.996Z,53.90
2018-04-25T09:12:45.403Z,55.50
2018-04-25T09:15:11.788Z,54.00
2018-04-25T09:17:38.173Z,54.90
2018-04-25T09:20:04.609Z,55.80
2018-04-25T09:22:30.991Z,54.50
2018-04-25T09:24:58.915Z,55.40
2018-04-25T09:27:25.340Z,55.30
2018-04-25T09:29:51.736Z,55.70
2018-04-25T09:32:18.151Z,55.10
2018-04-25T09:34:44.526Z,54.60
2018-04-25T09:37:11.655Z,49.70
2018-04-25T09:39:38.061Z,49.70
2018-04-25T09:42:04.455Z,49.80
2018-04-25T09:44:30.830Z,48.50
2018-04-25T09:46:57.227Z,49.40
2018-04-25T09:49:23.682Z,49.40
2018-04-25T09:51:50.916Z,47.80
2018-04-25T09:54:17.307Z,48.30
2018-04-25T09:56:44.492Z,47.60
2018-04-25T09:59:10.901Z,47.60
2018-04-25T10:01:38.020Z,49.30
2018-04-25T10:04:04.491Z,48.60
2018-04-25T10:06:30.874Z,48.00
2018-04-25T10:08:57.358Z,48.10
2018-04-25T10:11:24.520Z,47.10
2018-04-25T10:13:50.879Z,47.00
2018-04-25T10:16:17.288Z,48.00
2018-04-25T10:18:43.726Z,46.70
2018-04-25T10:21:10.128Z,46.20
2018-04-25T10:23:37.271Z,45.50
2018-04-25T10:26:04.443Z,44.30
2018-04-25T10:28:31.608Z,45.70
2018-04-25T10:30:57.984Z,45.70
2018-04-25T10:33:24.380Z,44.00
2018-04-25T10:35:50.779Z,44.10
2018-04-25T10:38:17.918Z,43.30
2018-04-25T10:40:45.056Z,43.50
2018-04-25T10:43:11.448Z,44.00
2018-04-25T10:45:37.833Z,46.00
2018-04-25T10:48:04.233Z,45.90
2018-04-25T10:50:30.607Z,45.60
2018-04-25T10:52:57.736Z,46.10
2018-04-25T10:55:24.156Z,46.10
2018-04-25T10:57:50.560Z,45.30
2018-04-25T11:00:16.967Z,47.30
2018-04-25T11:02:43.385Z,46.00
2018-04-25T11:05:10.533Z,47.20
2018-04-25T11:07:36.926Z,47.20
2018-04-25T11:10:03.309Z,47.30
2018-04-25T11:12:30.438Z,45.30
2018-04-25T11:14:56.827Z,45.30
2018-04-25T11:17:23.213Z,46.10
2018-04-25T11:19:50.351Z,47.30
2018-04-25T11:22:18.217Z,45.90
2018-04-25T11:24:44.587Z,46.50
2018-04-25T11:27:10.999Z,47.90
2018-04-25T11:29:38.146Z,48.60
2018-04-25T11:32:04.564Z,48.50
2018-04-25T11:34:31.690Z,46.60
2018-04-25T11:36:58.062Z,47.10
2018-04-25T11:39:25.182Z,46.80
2018-04-25T11:41:51.554Z,46.50
2018-04-25T11:44:18.718Z,46.70
2018-04-25T11:46:45.111Z,46.60
2018-04-25T11:49:11.541Z,46.70
2018-04-25T11:51:37.944Z,48.30
2018-04-25T11:54:04.343Z,47.30
2018-04-25T11:56:30.739Z,45.80
2018-04-25T11:58:57.139Z,45.50
2018-04-25T12:01:23.538Z,44.60
2018-04-25T12:03:49.945Z,45.90
2018-04-25T12:06:17.085Z,46.70
2018-04-25T12:08:43.492Z,46.00
2018-04-25T12:11:09.876Z,45.50
2018-04-25T12:13:37.040Z,47.00
2018-04-25T12:16:03.480Z,47.00
2018-04-25T12:18:29.881Z,48.20
2018-04-25T12:20:57.016Z,46.50
2018-04-25T12:23:24.170Z,45.10
2018-04-25T12:25:52.018Z,45.70
2018-04-25T12:28:18.412Z,45.10
2018-04-25T12:30:44.817Z,45.50
2018-04-25T12:33:11.205Z,45.10
2018-04-25T12:35:37.585Z,44.00
2018-04-25T12:38:04.736Z,44.20
2018-04-25T12:40:31.862Z,44.20
2018-04-25T12:42:59.010Z,44.30
2018-04-25T12:45:25.436Z,44.30
2018-04-25T12:47:51.822Z,45.40
2018-04-25T12:50:18.214Z,45.50
2018-04-25T12:52:49.991Z,45.10
2018-04-25T12:55:17.138Z,44.40
2018-04-25T12:57:44.249Z,45.30
2018-04-25T13:00:10.704Z,45.20
2018-04-25T13:02:37.180Z,45.20
2018-04-25T13:05:03.638Z,44.80
2018-04-25T13:07:30.712Z,45.50
2018-04-25T13:09:57.073Z,45.00
2018-04-25T13:12:24.215Z,44.60
2018-04-25T13:14:51.340Z,46.40
2018-04-25T13:17:17.709Z,46.00
2018-04-25T13:19:44.828Z,45.30
2018-04-25T13:22:11.955Z,45.60
2018-04-25T13:24:38.334Z,45.10
2018-04-25T13:27:04.731Z,45.90
2018-04-25T13:29:31.386Z,44.80
2018-04-25T13:31:57.765Z,42.30
2018-04-25T13:34:24.140Z,43.80
2018-04-25T13:36:50.545Z,42.90
2018-04-25T13:39:16.937Z,43.70
2018-04-25T13:41:43.385Z,42.80
2018-04-25T13:44:10.511Z,43.00
2018-04-25T13:46:37.679Z,42.60
2018-04-25T13:49:04.802Z,43.00
2018-04-25T13:51:31.183Z,42.90
2018-04-25T13:53:57.634Z,43.60
2018-04-25T13:56:24.015Z,43.30
2018-04-25T13:58:51.129Z,44.00
2018-04-25T14:01:19.013Z,44.10
2018-04-25T14:03:45.410Z,44.10
2018-04-25T14:06:11.793Z,45.20
2018-04-25T14:08:38.190Z,44.60
2018-04-25T14:11:04.626Z,45.30
2018-04-25T14:13:31.026Z,44.30
2018-04-25T14:15:57.412Z,44.40
2018-04-25T14:18:24.540Z,45.90
2018-04-25T14:20:50.928Z,45.80
2018-04-25T14:25:42.472Z,46.00
2018-04-25T14:28:08.847Z,46.20
2018-04-25T14:30:35.235Z,45.70
2018-04-25T14:33:01.632Z,45.70
2018-04-25T14:35:28.800Z,46.70
2018-04-25T14:37:55.203Z,46.70
2018-04-25T14:40:21.612Z,46.60
2018-04-25T14:42:48.022Z,46.70
2018-04-25T14:45:14.419Z,46.80
2018-04-25T14:47:40.933Z,47.40
2018-04-25T14:50:07.337Z,46.50
2018-04-25T14:52:33.718Z,46.00
2018-04-25T14:55:00.124Z,46.50
2018-04-25T14:57:26.604Z,46.10
2018-04-25T14:59:52.986Z,45.40
2018-04-25T15:02:19.381Z,45.90
2018-04-25T15:04:45.775Z,46.40
2018-04-25T15:07:12.171Z,46.00
2018-04-25T15:09:38.546Z,45.20
2018-04-25T15:12:04.934Z,46.70
2018-04-25T15:14:31.319Z,46.00
2018-04-25T15:16:58.433Z,44.10
2018-04-25T15:19:24.787Z,43.90
2018-04-25T15:21:52.638Z,43.40
2018-04-25T15:24:19.019Z,43.40
2018-04-25T15:26:45.447Z,43.90
2018-04-25T15:29:12.554Z,43.70
2018-04-25T15:31:38.931Z,43.70
2018-04-25T15:34:05.355Z,43.30
2018-04-25T15:36:32.454Z,43.90
2018-04-25T15:38:58.854Z,43.90
2018-04-25T15:41:25.439Z,45.00
2018-04-25T15:43:53.510Z,44.40
2018-04-25T15:46:19.915Z,43.80
2018-04-25T15:48:46.334Z,44.80
2018-04-25T15:51:12.742Z,44.20
2018-04-25T15:53:39.905Z,44.70
2018-04-25T15:56:06.305Z,44.60
2018-04-25T15:58:32.783Z,44.60
2018-04-25T16:00:59.181Z,44.00
2018-04-25T16:03:25.563Z,44.40
2018-04-25T16:05:51.948Z,44.40
2018-04-25T16:08:19.077Z,42.80
2018-04-25T16:10:45.458Z,42.70
2018-04-25T16:13:11.819Z,43.20
2018-04-25T16:15:38.202Z,43.90
2018-04-25T16:18:05.402Z,42.80
2018-04-25T16:20:31.789Z,42.80
2018-04-25T16:22:58.933Z,42.60
2018-04-25T16:25:26.082Z,43.00
2018-04-25T16:27:53.211Z,43.90
2018-04-25T16:30:21.078Z,43.90
2018-04-25T16:32:48.948Z,44.30
2018-04-25T16:35:15.323Z,44.30
2018-04-25T16:37:41.705Z,44.20
2018-04-25T16:40:08.083Z,44.40
2018-04-25T16:42:34.462Z,43.90
2018-04-25T16:45:00.859Z,43.80
2018-04-25T16:47:27.232Z,43.90
2018-04-25T16:49:54.357Z,44.40
2018-04-25T16:52:20.824Z,44.40
2018-04-25T16:54:47.195Z,44.90
2018-04-25T16:57:13.658Z,44.30
2018-04-25T16:59:40.806Z,45.80
2018-04-25T17:02:07.209Z,45.70
2018-04-25T17:04:34.359Z,44.80
2018-04-25T17:07:01.547Z,45.90
2018-04-25T17:09:27.947Z,45.30
2018-04-25T17:11:54.326Z,45.30
2018-04-25T17:14:23.131Z,44.80
2018-04-25T17:16:49.508Z,44.80
2018-04-25T17:19:15.887Z,44.60
2018-04-25T17:21:42.287Z,47.90
2018-04-25T17:24:08.843Z,49.30
2018-04-25T17:26:35.232Z,50.20
2018-04-25T17:29:01.663Z,50.90
2018-04-25T17:31:28.049Z,51.40
2018-04-25T17:33:54.447Z,51.90
2018-04-25T17:36:20.830Z,52.40
2018-04-25T17:38:47.943Z,52.70
2018-04-25T17:41:14.315Z,52.00
2018-04-25T17:43:41.450Z,52.20
2018-04-25T17:46:07.824Z,52.20
2018-04-25T17:48:34.920Z,52.30
2018-04-25T17:51:01.302Z,52.30
2018-04-25T17:53:27.676Z,52.60
2018-04-25T17:55:54.061Z,52.50
2018-04-25T17:58:20.479Z,53.00
2018-04-25T18:00:47.598Z,53.30
2018-04-25T18:03:13.994Z,53.60
2018-04-25T18:05:40.387Z,53.60
2018-04-25T18:08:07.512Z,54.10
2018-04-25T18:10:33.962Z,54.10
2018-04-25T18:13:01.550Z,54.20
2018-04-25T18:15:27.934Z,54.70
2018-04-25T18:17:56.063Z,55.30
2018-04-25T18:20:22.471Z,55.30
2018-04-25T18:22:49.626Z,55.70
2018-04-25T18:25:16.779Z,56.20
2018-04-25T18:27:43.234Z,56.20
2018-04-25T18:30:09.640Z,56.40
2018-04-25T18:32:36.045Z,56.70
2018-04-25T18:35:03.399Z,57.00
2018-04-25T18:37:29.818Z,56.70
2018-04-25T18:39:56.399Z,56.80
2018-04-25T18:42:23.579Z,56.70
2018-04-25T18:44:49.981Z,56.70
2018-04-25T18:47:17.191Z,56.80
2018-04-25T18:49:43.600Z,56.80
2018-04-25T18:52:10.048Z,56.90
2018-04-25T18:54:36.450Z,56.70
2018-04-25T18:57:02.860Z,56.70
2018-04-25T18:59:30.031Z,56.30
2018-04-25T19:01:57.199Z,57.00
2018-04-25T19:04:23.590Z,56.90
2018-04-25T19:06:50.745Z,57.50
2018-04-25T19:09:17.134Z,57.40
2018-04-25T19:11:43.515Z,57.20
2018-04-25T19:14:10.641Z,57.90
2018-04-25T19:16:37.027Z,57.80
2018-04-25T19:19:03.464Z,58.20
2018-04-25T19:21:29.890Z,57.90
2018-04-25T19:23:56.288Z,57.80
2018-04-25T19:26:23.431Z,58.60
2018-04-25T19:28:49.861Z,58.60
2018-04-25T19:31:16.268Z,58.30
2018-04-25T19:33:42.673Z,58.40
2018-04-25T19:36:09.089Z,58.40
2018-04-25T19:38:36.221Z,58.70
2018-04-25T19:41:03.357Z,58.60
2018-04-25T19:43:30.473Z,58.80
2018-04-25T19:45:56.874Z,58.40
2018-04-25T19:48:23.438Z,58.60
2018-04-25T19:50:49.815Z,58.80
2018-04-25T19:53:16.934Z,58.70
2018-04-25T19:55:43.301Z,58.70
2018-04-25T19:58:10.420Z,59.80
2018-04-25T20:00:36.812Z,59.80
2018-04-25T20:03:03.212Z,60.40
2018-04-25T20:05:30.337Z,61.70
2018-04-25T20:07:56.725Z,61.00
2018-04-25T20:10:23.115Z,61.90
2018-04-25T20:12:49.500Z,62.60
2018-04-25T20:15:15.875Z,63.70
2018-04-25T20:17:42.274Z,63.80
2018-04-25T20:20:08.729Z,63.70
2018-04-25T20:22:35.799Z,63.90
2018-04-25T20:25:02.189Z,63.10
2018-04-25T20:27:28.591Z,63.40
2018-04-25T20:29:55.029Z,63.40
2018-04-25T20:32:21.427Z,62.60
2018-04-25T20:34:47.804Z,62.10
2018-04-25T20:37:14.225Z,62.00
2018-04-25T20:39:40.612Z,62.60
2018-04-25T20:42:07.002Z,62.80
2018-04-25T20:44:33.386Z,62.80
2018-04-25T20:46:59.767Z,63.00
2018-04-25T20:49:26.257Z,62.90
2018-04-25T20:51:52.649Z,62.90
2018-04-25T20:54:19.033Z,64.10
2018-04-25T20:56:46.243Z,62.30
2018-04-25T20:59:12.632Z,62.90
2018-04-25T21:01:39.749Z,61.00
2018-04-25T21:04:06.129Z,60.90
2018-04-25T21:06:32.528Z,61.30
2018-04-25T21:08:59.659Z,58.40
2018-04-25T21:11:26.065Z,58.30
2018-04-25T21:13:52.438Z,57.40
2018-04-25T21:16:19.555Z,57.60
2018-04-25T21:18:46.004Z,57.50
2018-04-25T21:21:12.397Z,56.40
2018-04-25T21:23:38.844Z,55.80
2018-04-25T21:26:05.220Z,54.50
2018-04-25T21:28:31.594Z,54.50
2018-04-25T21:30:57.981Z,54.10
2018-04-25T21:33:24.367Z,53.90
2018-04-25T21:35:50.772Z,53.90
2018-04-25T21:38:17.164Z,54.20
2018-04-25T21:40:43.601Z,53.80
2018-04-25T21:43:10.776Z,53.80
2018-04-25T21:45:37.901Z,53.50
2018-04-25T21:48:04.300Z,53.40
2018-04-25T21:50:30.698Z,53.80
2018-04-25T21:52:57.831Z,53.40
2018-04-25T21:55:24.953Z,53.20
2018-04-25T21:57:51.365Z,53.20
2018-04-25T22:00:17.779Z,53.40
2018-04-25T22:02:44.159Z,53.60
2018-04-25T22:05:10.530Z,53.80
2018-04-25T22:07:37.637Z,53.60
2018-04-25T22:10:04.039Z,53.60
2018-04-25T22:12:30.409Z,53.80
2018-04-25T22:14:57.535Z,53.90
2018-04-25T22:17:23.963Z,53.90
2018-04-25T22:19:50.341Z,53.40
2018-04-25T22:22:17.459Z,53.70
2018-04-25T22:24:43.818Z,53.70
2018-04-25T22:27:10.938Z,54.70
2018-04-25T22:29:37.321Z,54.20
2018-04-25T22:32:03.713Z,53.60
2018-04-25T22:34:30.096Z,54.30
2018-04-25T22:36:57.389Z,53.90
2018-04-25T22:39:23.832Z,53.50
2018-04-25T22:41:50.188Z,53.80
2018-04-25T22:44:17.317Z,54.20
2018-04-25T22:46:43.703Z,54.20
2018-04-25T22:49:10.105Z,53.80
2018-04-25T22:51:37.239Z,54.20
2018-04-25T22:54:03.615Z,54.20
2018-04-25T22:56:30.002Z,53.70
2018-04-25T22:58:56.391Z,54.40
2018-04-25T23:01:22.799Z,54.20
2018-04-25T23:03:49.189Z,54.60
2018-04-25T23:06:15.601Z,54.20
2018-04-25T23:08:42.003Z,54.00
2018-04-25T23:11:08.394Z,54.20
2018-04-25T23:13:34.772Z,54.00
2018-04-25T23:16:01.169Z,54.60
2018-04-25T23:18:28.276Z,55.20
2018-04-25T23:20:55.494Z,54.20
2018-04-25T23:23:21.872Z,54.20
2018-04-25T23:25:48.363Z,53.20
2018-04-25T23:28:15.495Z,52.50
2018-04-25T23:30:42.641Z,52.00
2018-04-25T23:33:09.756Z,52.70
2018-04-25T23:35:36.128Z,52.70
2018-04-25T23:38:03.242Z,52.80
2018-04-25T23:40:29.628Z,52.80
2018-04-25T23:42:56.021Z,52.10
2018-04-25T23:45:22.394Z,52.50
2018-04-25T23:47:48.771Z,52.40
2018-04-25T23:50:15.160Z,52.70
2018-04-25T23:52:41.565Z,51.70
2018-04-25T23:55:07.993Z,51.90
2018-04-25T23:57:35.130Z,52.30
